createdAt,value
2023-05-09T00:00:53.135Z,40.50
2023-05-09T00:01:53.202Z,40.49
2023-05-09T00:02:53.242Z,40.52
2023-05-09T00:03:53.235Z,40.50
2023-05-09T00:04:53.246Z,40.51
2023-05-09T00:05:53.294Z,40.50
2023-05-09T00:06:53.260Z,40.54
2023-05-09T00:07:53.295Z,40.51
2023-05-09T00:08:53.413Z,40.48
2023-05-09T00:09:53.386Z,40.48
2023-05-09T00:10:53.384Z,40.50
2023-05-09T00:11:53.429Z,40.50
2023-05-09T00:12:53.514Z,40.49
2023-05-09T00:13:53.484Z,40.45
2023-05-09T00:14:53.517Z,40.49
2023-05-09T00:15:53.573Z,40.48
2023-05-09T00:16:53.662Z,40.47
2023-05-09T00:17:53.629Z,40.46
2023-05-09T00:18:53.638Z,40.48
2023-05-09T00:19:53.671Z,40.47
2023-05-09T00:20:53.725Z,40.47
2023-05-09T00:21:53.722Z,40.49
2023-05-09T00:22:53.729Z,40.48
2023-05-09T00:23:53.764Z,40.48
2023-05-09T00:24:53.924Z,40.46
2023-05-09T00:25:53.876Z,40.42
2023-05-09T00:26:53.906Z,40.40
2023-05-09T00:27:53.903Z,40.38
2023-05-09T00:28:53.971Z,40.37
2023-05-09T00:29:53.995Z,40.37
2023-05-09T00:30:54.005Z,40.37
2023-05-09T00:31:54.078Z,40.34
2023-05-09T00:32:54.205Z,40.33
2023-05-09T00:33:54.127Z,40.33
2023-05-09T00:34:54.149Z,40.34
2023-05-09T00:35:54.150Z,40.30
2023-05-09T00:36:54.187Z,40.31
2023-05-09T00:37:54.225Z,40.31
2023-05-09T00:38:54.272Z,40.35
2023-05-09T00:39:54.275Z,40.32
2023-05-09T00:40:54.360Z,40.29
2023-05-09T00:41:54.327Z,40.29
2023-05-09T00:42:54.330Z,40.29
2023-05-09T00:43:54.361Z,40.30
2023-05-09T00:44:54.368Z,40.26
2023-05-09T00:45:54.428Z,40.27
2023-05-09T00:46:54.446Z,40.28
2023-05-09T00:47:54.449Z,40.25
2023-05-09T00:48:54.495Z,40.25
2023-05-09T00:49:54.535Z,40.24
2023-05-09T00:50:54.542Z,40.24
2023-05-09T00:51:54.583Z,40.26
2023-05-09T00:52:54.589Z,40.24
2023-05-09T00:53:54.569Z,40.25
2023-05-09T00:54:54.607Z,40.24
2023-05-09T00:55:54.660Z,40.26
2023-05-09T00:56:54.771Z,40.25
2023-05-09T00:57:54.712Z,40.27
2023-05-09T00:58:54.741Z,40.27
2023-05-09T00:59:54.780Z,40.28
2023-05-09T01:00:54.801Z,40.29
2023-05-09T01:01:54.906Z,40.30
2023-05-09T01:02:54.950Z,40.31
2023-05-09T01:03:55.608Z,40.30
2023-05-09T01:04:54.900Z,40.30
2023-05-09T01:05:54.933Z,40.29
2023-05-09T01:06:55.008Z,40.30
2023-05-09T01:07:55.007Z,40.31
2023-05-09T01:08:55.063Z,40.31
2023-05-09T01:09:55.063Z,40.33
2023-05-09T01:10:55.118Z,40.31
2023-05-09T01:11:55.105Z,40.27
2023-05-09T01:12:55.260Z,40.28
2023-05-09T01:13:55.164Z,40.28
2023-05-09T01:14:55.175Z,40.25
2023-05-09T01:15:55.282Z,40.28
2023-05-09T01:16:55.221Z,40.23
2023-05-09T01:17:55.276Z,40.25
2023-05-09T01:18:55.247Z,40.24
2023-05-09T01:19:55.287Z,40.28
2023-05-09T01:20:55.287Z,40.26
2023-05-09T01:21:55.331Z,40.28
2023-05-09T01:22:55.334Z,40.30
2023-05-09T01:23:55.386Z,40.31
2023-05-09T01:24:55.438Z,40.31
2023-05-09T01:25:55.460Z,40.28
2023-05-09T01:26:55.466Z,40.28
2023-05-09T01:27:55.508Z,40.28
2023-05-09T01:28:55.637Z,40.28
2023-05-09T01:29:55.587Z,40.26
2023-05-09T01:30:55.626Z,40.28
2023-05-09T01:31:55.651Z,40.32
2023-05-09T01:32:55.772Z,40.28
2023-05-09T01:33:55.648Z,40.28
2023-05-09T01:34:55.701Z,40.31
2023-05-09T01:35:55.683Z,40.29
2023-05-09T01:36:55.687Z,40.28
2023-05-09T01:37:55.707Z,40.29
2023-05-09T01:38:55.746Z,40.28
2023-05-09T01:39:55.757Z,40.30
2023-05-09T01:40:55.803Z,40.30
2023-05-09T01:41:55.786Z,40.32
2023-05-09T01:42:55.838Z,40.31
2023-05-09T01:43:55.922Z,40.29
2023-05-09T01:44:55.984Z,40.26
2023-05-09T01:45:55.882Z,40.30
2023-05-09T01:46:55.983Z,40.30
2023-05-09T01:47:56.052Z,40.27
2023-05-09T01:48:56.010Z,40.26
2023-05-09T01:49:56.055Z,40.28
2023-05-09T01:50:56.082Z,40.26
2023-05-09T01:51:56.105Z,40.31
2023-05-09T01:52:56.150Z,40.28
2023-05-09T01:53:56.190Z,40.29
2023-05-09T01:54:56.221Z,40.26
2023-05-09T01:55:56.236Z,40.26
2023-05-09T01:56:56.285Z,40.26
2023-05-09T01:57:56.308Z,40.28
2023-05-09T01:58:56.362Z,40.26
2023-05-09T01:59:56.368Z,40.25
2023-05-09T02:00:56.541Z,40.26
2023-05-09T02:01:56.455Z,40.26
2023-05-09T02:02:56.668Z,40.26
2023-05-09T02:03:56.375Z,40.24
2023-05-09T02:04:56.440Z,40.27
2023-05-09T02:05:56.474Z,40.24
2023-05-09T02:06:56.480Z,40.25
2023-05-09T02:07:56.515Z,40.23
2023-05-09T02:08:56.592Z,40.27
2023-05-09T02:09:56.612Z,40.25
2023-05-09T02:10:56.621Z,40.24
2023-05-09T02:11:56.629Z,40.22
2023-05-09T02:12:56.688Z,40.23
2023-05-09T02:13:56.686Z,40.23
2023-05-09T02:14:56.705Z,40.24
2023-05-09T02:15:56.712Z,40.25
2023-05-09T02:16:56.963Z,40.25
2023-05-09T02:17:56.843Z,40.21
2023-05-09T02:18:56.818Z,40.22
2023-05-09T02:19:56.859Z,40.21
2023-05-09T02:20:57.214Z,40.21
2023-05-09T02:21:56.900Z,40.20
2023-05-09T02:22:56.941Z,40.22
2023-05-09T02:23:56.944Z,40.19
2023-05-09T02:24:57.018Z,40.20
2023-05-09T02:25:57.026Z,40.22
2023-05-09T02:26:57.046Z,40.21
2023-05-09T02:27:57.041Z,40.19
2023-05-09T02:28:57.114Z,40.17
2023-05-09T02:29:57.124Z,40.16
2023-05-09T02:30:57.141Z,40.17
2023-05-09T02:31:57.196Z,40.16
2023-05-09T02:32:57.277Z,40.16
2023-05-09T02:33:57.209Z,40.17
2023-05-09T02:34:57.208Z,40.15
2023-05-09T02:35:57.665Z,40.16
2023-05-09T02:36:57.276Z,40.16
2023-05-09T02:37:57.309Z,40.18
2023-05-09T02:38:57.314Z,40.15
2023-05-09T02:39:57.362Z,40.12
2023-05-09T02:40:57.386Z,40.15
2023-05-09T02:41:57.400Z,40.18
2023-05-09T02:42:57.421Z,40.18
2023-05-09T02:43:57.459Z,40.21
2023-05-09T02:44:57.463Z,40.18
2023-05-09T02:45:57.523Z,40.19
2023-05-09T02:46:57.522Z,40.18
2023-05-09T02:47:57.577Z,40.17
2023-05-09T02:48:57.605Z,40.16
2023-05-09T02:49:57.545Z,40.17
2023-05-09T02:50:57.564Z,40.18
2023-05-09T02:51:57.592Z,40.18
2023-05-09T02:52:57.630Z,40.17
2023-05-09T02:53:57.673Z,40.19
2023-05-09T02:54:57.696Z,40.19
2023-05-09T02:55:57.744Z,40.17
2023-05-09T02:56:57.768Z,40.16
2023-05-09T02:58:12.065Z,40.19
2023-05-09T02:58:58.746Z,40.19
2023-05-09T02:59:57.680Z,40.16
2023-05-09T03:00:57.668Z,40.15
2023-05-09T03:01:57.674Z,40.14
2023-05-09T03:02:57.667Z,40.14
2023-05-09T03:03:57.592Z,40.14
2023-05-09T03:04:57.641Z,40.12
2023-05-09T03:05:57.519Z,40.12
2023-05-09T03:06:58.185Z,40.14
2023-05-09T03:07:57.486Z,40.14
2023-05-09T03:08:57.542Z,40.14
2023-05-09T03:09:57.534Z,40.15
2023-05-09T03:10:57.595Z,40.18
2023-05-09T03:11:57.618Z,40.18
2023-05-09T03:12:57.696Z,40.20
2023-05-09T03:13:57.702Z,40.18
2023-05-09T03:14:57.746Z,40.18
2023-05-09T03:15:57.760Z,40.17
2023-05-09T03:16:57.752Z,40.12
2023-05-09T03:17:57.801Z,40.11
2023-05-09T03:18:57.775Z,40.13
2023-05-09T03:19:57.815Z,40.11
2023-05-09T03:20:57.933Z,40.12
2023-05-09T03:21:57.878Z,40.11
2023-05-09T03:22:57.946Z,40.09
2023-05-09T03:23:57.964Z,40.15
2023-05-09T03:24:57.996Z,40.13
2023-05-09T03:25:58.010Z,40.11
2023-05-09T03:26:58.041Z,40.13
2023-05-09T03:27:58.083Z,40.16
2023-05-09T03:28:58.085Z,40.14
2023-05-09T03:29:58.116Z,40.15
2023-05-09T03:30:58.193Z,40.14
2023-05-09T03:31:58.177Z,40.15
2023-05-09T03:32:58.319Z,40.12
2023-05-09T03:33:59.204Z,40.09
2023-05-09T03:34:58.305Z,40.12
2023-05-09T03:35:58.324Z,40.10
2023-05-09T03:36:58.451Z,40.11
2023-05-09T03:37:58.384Z,40.07
2023-05-09T03:38:58.459Z,40.10
2023-05-09T03:39:58.454Z,40.10
2023-05-09T03:40:58.489Z,40.11
2023-05-09T03:41:58.529Z,40.09
2023-05-09T03:42:58.567Z,40.11
2023-05-09T03:43:58.607Z,40.14
2023-05-09T03:44:58.676Z,40.12
2023-05-09T03:45:58.675Z,40.18
2023-05-09T03:46:58.759Z,40.17
2023-05-09T03:47:58.750Z,40.16
2023-05-09T03:48:58.740Z,40.15
2023-05-09T03:49:58.731Z,40.17
2023-05-09T03:50:58.778Z,40.17
2023-05-09T03:51:58.806Z,40.14
2023-05-09T03:52:58.951Z,40.19
2023-05-09T03:53:58.904Z,40.16
2023-05-09T03:54:58.914Z,40.14
2023-05-09T03:55:58.964Z,40.15
2023-05-09T03:56:58.968Z,40.17
2023-05-09T03:57:58.986Z,40.15
2023-05-09T03:58:59.016Z,40.17
2023-05-09T03:59:59.076Z,40.14
2023-05-09T04:00:59.074Z,40.15
2023-05-09T04:01:59.083Z,40.13
2023-05-09T04:02:59.178Z,40.11
2023-05-09T04:03:59.161Z,40.13
2023-05-09T04:04:59.181Z,40.14
2023-05-09T04:05:59.175Z,40.13
2023-05-09T04:06:59.162Z,40.13
2023-05-09T04:07:59.227Z,40.15
2023-05-09T04:08:59.352Z,40.13
2023-05-09T04:09:59.311Z,40.14
2023-05-09T04:10:59.362Z,40.13
2023-05-09T04:11:59.389Z,40.14
2023-05-09T04:12:59.436Z,40.12
2023-05-09T04:13:59.425Z,40.14
2023-05-09T04:14:59.452Z,40.16
2023-05-09T04:15:59.492Z,40.16
2023-05-09T04:16:59.503Z,40.17
2023-05-09T04:17:59.520Z,40.15
2023-05-09T04:18:59.558Z,40.17
2023-05-09T04:19:59.587Z,40.16
2023-05-09T04:20:59.627Z,40.14
2023-05-09T04:21:59.651Z,40.17
2023-05-09T04:22:59.671Z,40.17
2023-05-09T04:23:59.685Z,40.17
2023-05-09T04:24:59.782Z,40.18
2023-05-09T04:25:59.771Z,40.17
2023-05-09T04:26:59.805Z,40.17
2023-05-09T04:27:59.822Z,40.15
2023-05-09T04:28:59.838Z,40.13
2023-05-09T04:29:59.866Z,40.14
2023-05-09T04:31:00.027Z,40.16
2023-05-09T04:32:00.052Z,40.13
2023-05-09T04:33:00.028Z,40.13
2023-05-09T04:34:00.004Z,40.12
2023-05-09T04:35:00.060Z,40.09
2023-05-09T04:36:00.070Z,40.10
2023-05-09T04:37:00.165Z,40.09
2023-05-09T04:38:00.174Z,40.11
2023-05-09T04:39:00.169Z,40.11
2023-05-09T04:40:00.214Z,40.10
2023-05-09T04:41:00.334Z,40.08
2023-05-09T04:42:00.261Z,40.08
2023-05-09T04:43:00.322Z,40.09
2023-05-09T04:44:00.306Z,40.11
2023-05-09T04:45:00.351Z,40.07
2023-05-09T04:46:00.476Z,40.07
2023-05-09T04:47:00.388Z,40.06
2023-05-09T04:48:00.507Z,40.07
2023-05-09T04:49:00.469Z,40.08
2023-05-09T04:50:00.463Z,40.07
2023-05-09T04:51:00.525Z,40.09
2023-05-09T04:52:00.562Z,40.08
2023-05-09T04:53:00.581Z,40.08
2023-05-09T04:54:00.606Z,40.07
2023-05-09T04:55:00.638Z,40.06
2023-05-09T04:56:00.682Z,40.06
2023-05-09T04:57:13.673Z,40.06
2023-05-09T04:58:01.688Z,40.06
2023-05-09T04:59:00.690Z,40.09
2023-05-09T05:00:00.642Z,40.07
2023-05-09T05:01:07.794Z,40.06
2023-05-09T05:02:00.648Z,40.08
2023-05-09T05:03:00.595Z,40.07
2023-05-09T05:04:00.540Z,40.06
2023-05-09T05:05:10.830Z,40.07
2023-05-09T05:06:01.533Z,40.07
2023-05-09T05:07:00.536Z,40.07
2023-05-09T05:08:00.465Z,40.08
2023-05-09T05:09:00.424Z,40.07
2023-05-09T05:10:00.387Z,40.07
2023-05-09T05:11:00.363Z,40.06
2023-05-09T05:12:02.856Z,40.05
2023-05-09T05:13:00.387Z,40.08
2023-05-09T05:14:00.274Z,40.08
2023-05-09T05:15:00.249Z,40.08
2023-05-09T05:16:00.277Z,40.05
2023-05-09T05:17:00.283Z,40.06
2023-05-09T05:18:00.222Z,40.04
2023-05-09T05:19:00.287Z,40.02
2023-05-09T05:20:00.193Z,40.02
2023-05-09T05:21:00.126Z,40.01
2023-05-09T05:22:00.135Z,39.99
2023-05-09T05:23:00.033Z,40.00
2023-05-09T05:23:59.998Z,40.00
2023-05-09T05:25:00.015Z,39.96
2023-05-09T05:25:59.965Z,39.95
2023-05-09T05:26:59.973Z,40.01
2023-05-09T05:27:59.911Z,39.98
2023-05-09T05:28:59.957Z,39.98
2023-05-09T05:29:59.850Z,39.99
2023-05-09T05:30:59.853Z,39.97
2023-05-09T05:32:00.106Z,39.97
2023-05-09T05:32:59.835Z,40.00
2023-05-09T05:33:59.744Z,40.47
2023-05-09T05:34:59.721Z,40.89
2023-05-09T05:35:59.681Z,41.08
2023-05-09T05:36:59.746Z,41.23
2023-05-09T05:37:59.687Z,41.46
2023-05-09T05:38:59.634Z,41.77
2023-05-09T05:39:59.630Z,41.97
2023-05-09T05:40:59.613Z,42.58
2023-05-09T05:41:59.762Z,42.74
2023-05-09T05:43:00.281Z,43.13
2023-05-09T05:43:59.527Z,43.08
2023-05-09T05:44:59.592Z,43.32
2023-05-09T05:46:06.521Z,43.20
2023-05-09T05:46:59.805Z,43.23
2023-05-09T05:47:59.473Z,43.45
2023-05-09T05:48:59.409Z,43.40
2023-05-09T05:49:59.405Z,43.49
2023-05-09T05:50:59.368Z,43.45
2023-05-09T05:51:59.363Z,43.38
2023-05-09T05:52:59.336Z,43.33
2023-05-09T05:53:59.311Z,43.40
2023-05-09T05:54:59.296Z,43.50
2023-05-09T05:55:59.231Z,43.49
2023-05-09T05:56:59.239Z,43.63
2023-05-09T05:57:59.162Z,43.71
2023-05-09T05:58:59.150Z,43.84
2023-05-09T05:59:59.115Z,43.94
2023-05-09T06:00:59.172Z,44.11
2023-05-09T06:01:59.384Z,44.19
2023-05-09T06:02:59.163Z,44.25
2023-05-09T06:03:59.083Z,44.32
2023-05-09T06:04:59.003Z,44.66
2023-05-09T06:05:58.960Z,44.83
2023-05-09T06:06:58.897Z,44.91
2023-05-09T06:07:58.860Z,45.03
2023-05-09T06:08:58.845Z,45.05
2023-05-09T06:09:58.809Z,45.01
2023-05-09T06:10:58.781Z,45.11
2023-05-09T06:11:58.756Z,44.92
2023-05-09T06:12:58.828Z,44.29
2023-05-09T06:13:58.658Z,43.63
2023-05-09T06:14:58.635Z,43.53
2023-05-09T06:16:07.734Z,43.44
2023-05-09T06:16:59.672Z,43.59
2023-05-09T06:17:58.569Z,43.71
2023-05-09T06:18:58.492Z,44.08
2023-05-09T06:19:58.473Z,44.23
2023-05-09T06:20:58.426Z,44.20
2023-05-09T06:21:58.381Z,44.34
2023-05-09T06:22:58.355Z,43.08
2023-05-09T06:24:09.832Z,44.38
2023-05-09T06:24:59.245Z,44.32
2023-05-09T06:25:58.222Z,44.54
2023-05-09T06:26:58.208Z,44.71
2023-05-09T06:27:58.231Z,44.73
2023-05-09T06:28:58.143Z,44.69
2023-05-09T06:29:58.127Z,44.81
2023-05-09T06:30:58.089Z,44.83
2023-05-09T06:31:58.092Z,44.83
2023-05-09T06:32:58.149Z,44.87
2023-05-09T06:33:57.974Z,44.87
2023-05-09T06:34:57.945Z,44.39
2023-05-09T06:35:57.906Z,43.74
2023-05-09T06:36:57.862Z,42.96
2023-05-09T06:37:57.898Z,42.22
2023-05-09T06:38:57.884Z,41.97
2023-05-09T06:39:57.916Z,42.09
2023-05-09T06:40:57.939Z,42.77
2023-05-09T06:41:57.971Z,42.62
2023-05-09T06:42:58.321Z,42.60
2023-05-09T06:43:58.036Z,42.47
2023-05-09T06:44:58.083Z,42.54
2023-05-09T06:45:58.082Z,42.49
2023-05-09T06:46:58.105Z,42.23
2023-05-09T06:47:58.161Z,42.15
2023-05-09T06:48:58.259Z,42.26
2023-05-09T06:49:58.184Z,42.18
2023-05-09T06:50:58.176Z,42.70
2023-05-09T06:51:58.186Z,42.56
2023-05-09T06:52:58.313Z,42.22
2023-05-09T06:53:58.241Z,42.18
2023-05-09T06:54:58.265Z,42.03
2023-05-09T06:55:58.311Z,42.20
2023-05-09T06:56:58.320Z,41.99
2023-05-09T06:57:58.338Z,41.92
2023-05-09T06:58:58.334Z,41.87
2023-05-09T06:59:58.352Z,41.81
2023-05-09T07:00:58.348Z,41.83
2023-05-09T07:01:58.397Z,42.08
2023-05-09T07:02:58.901Z,42.12
2023-05-09T07:03:58.308Z,42.17
2023-05-09T07:04:58.453Z,42.41
2023-05-09T07:05:58.306Z,42.56
2023-05-09T07:06:58.293Z,42.73
2023-05-09T07:07:58.264Z,42.84
2023-05-09T07:08:58.281Z,42.84
2023-05-09T07:10:10.478Z,42.77
2023-05-09T07:10:59.274Z,42.72
2023-05-09T07:11:58.194Z,42.78
2023-05-09T07:12:58.263Z,42.84
2023-05-09T07:13:58.168Z,42.99
2023-05-09T07:14:58.145Z,42.99
2023-05-09T07:15:58.193Z,42.99
2023-05-09T07:17:09.929Z,43.35
2023-05-09T07:17:59.435Z,43.33
2023-05-09T07:18:58.065Z,43.27
2023-05-09T07:19:58.001Z,43.18
2023-05-09T07:20:58.094Z,43.22
2023-05-09T07:21:57.993Z,43.29
2023-05-09T07:22:58.046Z,43.42
2023-05-09T07:23:57.946Z,43.55
2023-05-09T07:24:57.919Z,43.44
2023-05-09T07:25:57.914Z,43.37
2023-05-09T07:26:57.904Z,43.45
2023-05-09T07:27:57.865Z,43.43
2023-05-09T07:28:57.875Z,43.58
2023-05-09T07:29:57.855Z,43.64
2023-05-09T07:30:57.819Z,43.78
2023-05-09T07:31:57.851Z,43.88
2023-05-09T07:32:57.858Z,44.11
2023-05-09T07:33:57.860Z,44.46
2023-05-09T07:34:57.728Z,44.03
2023-05-09T07:35:57.705Z,44.02
2023-05-09T07:36:57.808Z,43.97
2023-05-09T07:37:57.639Z,43.89
2023-05-09T07:38:57.827Z,43.94
2023-05-09T07:39:57.623Z,43.64
2023-05-09T07:40:57.610Z,43.48
2023-05-09T07:41:57.586Z,43.42
2023-05-09T07:42:57.560Z,43.73
2023-05-09T07:43:57.832Z,43.27
2023-05-09T07:44:57.555Z,43.21
2023-05-09T07:45:57.648Z,43.16
2023-05-09T07:46:57.641Z,43.25
2023-05-09T07:47:57.721Z,43.18
2023-05-09T07:48:57.678Z,43.19
2023-05-09T07:49:57.708Z,43.08
2023-05-09T07:50:57.722Z,43.00
2023-05-09T07:51:57.701Z,43.19
2023-05-09T07:52:57.745Z,43.13
2023-05-09T07:53:57.754Z,43.25
2023-05-09T07:54:57.786Z,43.29
2023-05-09T07:55:57.845Z,43.23
2023-05-09T07:56:57.770Z,43.39
2023-05-09T07:57:57.793Z,43.25
2023-05-09T07:58:57.752Z,43.04
2023-05-09T07:59:57.773Z,43.04
2023-05-09T08:00:57.745Z,42.99
2023-05-09T08:01:57.756Z,42.93
2023-05-09T08:02:57.798Z,42.92
2023-05-09T08:03:57.756Z,42.82
2023-05-09T08:04:57.706Z,42.94
2023-05-09T08:05:57.662Z,42.84
2023-05-09T08:06:57.636Z,42.78
2023-05-09T08:07:57.703Z,42.87
2023-05-09T08:08:57.741Z,42.94
2023-05-09T08:09:57.659Z,42.91
2023-05-09T08:10:57.633Z,42.81
2023-05-09T08:11:57.644Z,42.84
2023-05-09T08:12:57.693Z,42.58
2023-05-09T08:13:57.655Z,42.70
2023-05-09T08:14:57.680Z,42.81
2023-05-09T08:15:57.825Z,42.71
2023-05-09T08:16:57.736Z,42.76
2023-05-09T08:17:57.798Z,43.07
2023-05-09T08:18:58.392Z,43.35
2023-05-09T08:19:57.810Z,43.39
2023-05-09T08:20:57.856Z,43.47
2023-05-09T08:21:57.854Z,43.50
2023-05-09T08:22:57.961Z,43.55
2023-05-09T08:23:57.915Z,43.57
2023-05-09T08:24:57.984Z,43.67
2023-05-09T08:25:57.908Z,43.68
2023-05-09T08:26:57.886Z,43.74
2023-05-09T08:27:57.912Z,43.78
2023-05-09T08:28:57.959Z,43.78
2023-05-09T08:29:57.955Z,43.82
2023-05-09T08:30:58.112Z,43.90
2023-05-09T08:31:58.095Z,43.14
2023-05-09T08:32:58.044Z,43.29
2023-05-09T08:33:58.376Z,43.08
2023-05-09T08:34:57.922Z,42.41
2023-05-09T08:35:58.026Z,42.16
2023-05-09T08:36:57.908Z,41.88
2023-05-09T08:37:57.895Z,42.39
2023-05-09T08:38:58.431Z,42.56
2023-05-09T08:39:57.967Z,42.67
2023-05-09T08:40:57.994Z,42.46
2023-05-09T08:41:57.885Z,42.53
2023-05-09T08:42:57.866Z,42.59
2023-05-09T08:43:57.936Z,42.70
2023-05-09T08:44:57.897Z,42.65
2023-05-09T08:45:57.937Z,42.66
2023-05-09T08:46:57.948Z,42.64
2023-05-09T08:47:57.943Z,42.59
2023-05-09T08:48:58.000Z,42.52
2023-05-09T08:49:57.971Z,42.51
2023-05-09T08:50:57.992Z,42.80
2023-05-09T08:51:57.874Z,43.16
2023-05-09T08:52:57.947Z,43.14
2023-05-09T08:53:57.914Z,42.90
2023-05-09T08:54:58.956Z,42.54
2023-05-09T08:55:57.921Z,42.07
2023-05-09T08:56:58.056Z,42.05
2023-05-09T08:57:57.967Z,41.74
2023-05-09T08:58:57.984Z,41.63
2023-05-09T08:59:58.051Z,41.64
2023-05-09T09:00:58.050Z,41.74
2023-05-09T09:01:58.116Z,41.60
2023-05-09T09:02:58.189Z,41.83
2023-05-09T09:03:58.154Z,41.80
2023-05-09T09:04:58.280Z,41.94
2023-05-09T09:05:58.324Z,41.95
2023-05-09T09:06:58.306Z,41.68
2023-05-09T09:07:58.270Z,41.63
2023-05-09T09:08:58.305Z,41.73
2023-05-09T09:09:58.397Z,42.01
2023-05-09T09:10:58.386Z,42.02
2023-05-09T09:11:58.416Z,42.02
2023-05-09T09:12:58.592Z,41.84
2023-05-09T09:13:58.501Z,41.76
2023-05-09T09:14:58.532Z,41.46
2023-05-09T09:15:58.652Z,41.65
2023-05-09T09:16:59.422Z,41.51
2023-05-09T09:17:58.668Z,41.25
2023-05-09T09:18:59.043Z,40.97
2023-05-09T09:19:58.899Z,40.99
2023-05-09T09:20:58.708Z,41.12
2023-05-09T09:21:58.712Z,41.11
2023-05-09T09:22:58.690Z,41.32
2023-05-09T09:23:58.719Z,41.45
2023-05-09T09:24:58.728Z,41.40
2023-05-09T09:25:59.942Z,41.45
2023-05-09T09:26:58.819Z,41.10
2023-05-09T09:27:58.806Z,40.91
2023-05-09T09:28:58.894Z,40.74
2023-05-09T09:29:58.920Z,40.97
2023-05-09T09:30:58.825Z,41.31
2023-05-09T09:31:58.873Z,41.11
2023-05-09T09:32:58.957Z,40.91
2023-05-09T09:33:58.865Z,40.87
2023-05-09T09:34:58.949Z,40.75
2023-05-09T09:35:58.949Z,40.55
2023-05-09T09:36:58.965Z,40.58
2023-05-09T09:38:00.136Z,40.07
2023-05-09T09:38:59.009Z,39.96
2023-05-09T09:39:59.456Z,40.13
2023-05-09T09:40:59.049Z,40.63
2023-05-09T09:41:59.075Z,41.56
2023-05-09T09:42:59.091Z,41.94
2023-05-09T09:43:59.114Z,41.99
2023-05-09T09:44:59.511Z,42.04
2023-05-09T09:45:59.251Z,42.10
2023-05-09T09:46:59.194Z,41.96
2023-05-09T09:47:59.239Z,42.06
2023-05-09T09:49:00.204Z,41.30
2023-05-09T09:49:59.134Z,41.07
2023-05-09T09:50:59.106Z,40.99
2023-05-09T09:51:59.065Z,40.91
2023-05-09T09:52:59.028Z,40.68
2023-05-09T09:53:59.036Z,40.54
2023-05-09T09:54:58.984Z,40.31
2023-05-09T09:55:58.945Z,40.13
2023-05-09T09:56:58.881Z,40.44
2023-05-09T09:57:58.852Z,40.19
2023-05-09T09:58:58.828Z,40.49
2023-05-09T09:59:58.851Z,40.21
2023-05-09T10:00:58.920Z,40.45
2023-05-09T10:01:58.786Z,40.33
2023-05-09T10:02:58.839Z,40.42
2023-05-09T10:03:58.846Z,40.41
2023-05-09T10:04:58.777Z,40.44
2023-05-09T10:05:58.804Z,40.25
2023-05-09T10:06:58.821Z,40.37
2023-05-09T10:07:58.847Z,40.42
2023-05-09T10:08:58.783Z,40.53
2023-05-09T10:09:58.802Z,40.68
2023-05-09T10:10:58.789Z,40.68
2023-05-09T10:11:58.797Z,40.57
2023-05-09T10:12:58.858Z,40.67
2023-05-09T10:13:58.776Z,40.75
2023-05-09T10:14:58.815Z,40.92
2023-05-09T10:15:58.905Z,40.93
2023-05-09T10:16:58.896Z,40.99
2023-05-09T10:17:58.854Z,40.74
2023-05-09T10:18:58.836Z,40.66
2023-05-09T10:19:58.877Z,40.86
2023-05-09T10:20:58.816Z,40.70
2023-05-09T10:21:58.764Z,40.57
2023-05-09T10:22:58.787Z,40.19
2023-05-09T10:23:58.758Z,40.44
2023-05-09T10:24:58.801Z,40.38
2023-05-09T10:25:58.835Z,40.19
2023-05-09T10:26:58.813Z,40.09
2023-05-09T10:27:58.811Z,40.23
2023-05-09T10:28:58.777Z,40.38
2023-05-09T10:29:58.809Z,40.39
2023-05-09T10:30:58.871Z,40.25
2023-05-09T10:31:58.833Z,40.31
2023-05-09T10:32:58.884Z,40.18
2023-05-09T10:33:58.806Z,39.91
2023-05-09T10:34:58.762Z,39.97
2023-05-09T10:35:58.969Z,39.79
2023-05-09T10:36:58.783Z,39.71
2023-05-09T10:37:58.730Z,39.74
2023-05-09T10:38:58.717Z,39.67
2023-05-09T10:39:59.447Z,39.66
2023-05-09T10:40:58.663Z,39.74
2023-05-09T10:41:58.672Z,40.01
2023-05-09T10:42:58.654Z,40.25
2023-05-09T10:43:58.657Z,40.14
2023-05-09T10:44:58.629Z,40.06
2023-05-09T10:45:58.612Z,39.89
2023-05-09T10:46:58.625Z,39.58
2023-05-09T10:47:58.656Z,39.18
2023-05-09T10:48:58.671Z,39.12
2023-05-09T10:49:58.549Z,38.03
2023-05-09T10:50:58.566Z,37.87
2023-05-09T10:51:58.593Z,37.85
2023-05-09T10:52:58.572Z,37.73
2023-05-09T10:53:58.560Z,38.10
2023-05-09T10:54:58.525Z,37.82
2023-05-09T10:55:58.954Z,38.24
2023-05-09T10:56:58.550Z,38.50
2023-05-09T10:57:58.508Z,38.53
2023-05-09T10:58:58.481Z,38.38
2023-05-09T10:59:58.534Z,38.20
2023-05-09T11:00:58.519Z,38.32
2023-05-09T11:01:58.526Z,38.24
2023-05-09T11:02:58.544Z,38.44
2023-05-09T11:03:58.492Z,38.65
2023-05-09T11:04:58.584Z,38.29
2023-05-09T11:05:58.946Z,38.32
2023-05-09T11:06:58.442Z,38.14
2023-05-09T11:07:58.431Z,37.34
2023-05-09T11:08:58.484Z,37.46
2023-05-09T11:09:58.383Z,37.51
2023-05-09T11:10:58.411Z,37.07
2023-05-09T11:11:58.425Z,37.40
2023-05-09T11:12:58.688Z,37.17
2023-05-09T11:13:58.368Z,37.85
2023-05-09T11:14:58.376Z,37.87
2023-05-09T11:15:58.314Z,37.74
2023-05-09T11:16:59.258Z,37.81
2023-05-09T11:17:58.275Z,37.87
2023-05-09T11:18:58.933Z,37.06
2023-05-09T11:19:58.223Z,37.70
2023-05-09T11:20:58.223Z,37.92
2023-05-09T11:21:58.096Z,37.90
2023-05-09T11:22:58.066Z,37.16
2023-05-09T11:23:58.048Z,36.94
2023-05-09T11:24:58.003Z,36.94
2023-05-09T11:25:57.964Z,37.29
2023-05-09T11:26:57.943Z,37.40
2023-05-09T11:27:57.899Z,37.09
2023-05-09T11:28:57.854Z,37.07
2023-05-09T11:29:57.824Z,37.14
2023-05-09T11:30:57.984Z,37.28
2023-05-09T11:31:57.788Z,36.95
2023-05-09T11:32:57.743Z,37.42
2023-05-09T11:33:57.954Z,37.61
2023-05-09T11:34:57.798Z,37.64
2023-05-09T11:35:58.266Z,37.72
2023-05-09T11:36:57.610Z,37.85
2023-05-09T11:37:57.496Z,37.68
2023-05-09T11:38:57.437Z,37.79
2023-05-09T11:39:57.409Z,37.69
2023-05-09T11:40:57.365Z,37.72
2023-05-09T11:41:57.354Z,37.72
2023-05-09T11:42:58.827Z,37.76
2023-05-09T11:43:57.259Z,37.78
2023-05-09T11:44:57.204Z,37.71
2023-05-09T11:45:57.193Z,37.71
2023-05-09T11:46:57.160Z,37.63
2023-05-09T11:47:57.203Z,37.68
2023-05-09T11:48:57.107Z,37.49
2023-05-09T11:49:57.065Z,36.99
2023-05-09T11:50:57.052Z,36.76
2023-05-09T11:51:57.059Z,36.84
2023-05-09T11:52:57.022Z,37.09
2023-05-09T11:53:56.997Z,37.12
2023-05-09T11:54:57.012Z,37.08
2023-05-09T11:55:56.997Z,37.19
2023-05-09T11:56:57.000Z,37.20
2023-05-09T11:57:56.966Z,37.16
2023-05-09T11:58:56.936Z,36.95
2023-05-09T11:59:56.979Z,36.82
2023-05-09T12:00:56.936Z,36.83
2023-05-09T12:01:56.916Z,36.65
2023-05-09T12:02:57.017Z,36.57
2023-05-09T12:03:56.962Z,36.49
2023-05-09T12:04:56.862Z,36.21
2023-05-09T12:05:56.845Z,36.03
2023-05-09T12:06:56.879Z,36.17
2023-05-09T12:07:56.815Z,36.07
2023-05-09T12:08:56.909Z,36.37
2023-05-09T12:09:56.801Z,36.26
2023-05-09T12:10:56.798Z,35.62
2023-05-09T12:11:56.776Z,35.86
2023-05-09T12:12:56.800Z,35.84
2023-05-09T12:13:56.788Z,35.73
2023-05-09T12:14:56.750Z,35.91
2023-05-09T12:15:56.818Z,35.92
2023-05-09T12:16:56.745Z,35.87
2023-05-09T12:17:56.797Z,35.75
2023-05-09T12:18:56.713Z,35.87
2023-05-09T12:19:56.694Z,35.79
2023-05-09T12:20:56.709Z,35.80
2023-05-09T12:21:56.673Z,35.67
2023-05-09T12:22:56.655Z,35.31
2023-05-09T12:23:56.658Z,35.43
2023-05-09T12:24:56.702Z,35.65
2023-05-09T12:25:56.625Z,35.74
2023-05-09T12:26:56.595Z,35.18
2023-05-09T12:27:56.569Z,35.29
2023-05-09T12:28:56.544Z,35.34
2023-05-09T12:29:56.565Z,34.77
2023-05-09T12:30:56.571Z,34.29
2023-05-09T12:31:56.498Z,33.66
2023-05-09T12:32:56.586Z,33.87
2023-05-09T12:33:56.436Z,33.85
2023-05-09T12:34:56.450Z,33.36
2023-05-09T12:35:56.425Z,34.44
2023-05-09T12:36:56.434Z,34.53
2023-05-09T12:37:56.538Z,34.58
2023-05-09T12:38:56.367Z,34.58
2023-05-09T12:39:56.357Z,34.33
2023-05-09T12:40:56.458Z,33.98
2023-05-09T12:42:01.504Z,33.79
2023-05-09T12:42:57.309Z,33.69
2023-05-09T12:43:56.302Z,33.93
2023-05-09T12:44:56.229Z,34.13
2023-05-09T12:45:56.182Z,34.19
2023-05-09T12:46:56.233Z,33.80
2023-05-09T12:47:57.025Z,35.20
2023-05-09T12:48:56.074Z,35.54
2023-05-09T12:49:56.010Z,35.87
2023-05-09T12:50:55.999Z,36.21
2023-05-09T12:51:55.978Z,35.68
2023-05-09T12:53:03.158Z,35.59